sensor_id;sensor_type;location;lat;lon;timestamp;P1;durP1;ratioP1;P2;durP2;ratioP2
4577;SDS011;2301;47.354;8.528;2023-04-25T00:00:02;5.60;;;2.75;;
4577;SDS011;2301;47.354;8.528;2023-04-25T00:02:34;6.10;;;2.63;;
4577;SDS011;2301;47.354;8.528;2023-04-25T00:05:05;5.03;;;2.20;;
4577;SDS011;2301;47.354;8.528;2023-04-25T00:07:37;6.22;;;2.78;;
4577;SDS011;2301;47.354;8.528;2023-04-25T00:10:08;4.43;;;2.55;;
4577;SDS011;2301;47.354;8.528;2023-04-25T00:12:38;4.95;;;2.40;;
4577;SDS011;2301;47.354;8.528;2023-04-25T00:15:12;6.65;;;1.90;;
4577;SDS011;2301;47.354;8.528;2023-04-25T00:17:43;4.25;;;2.13;;
4577;SDS011;2301;47.354;8.528;2023-04-25T00:20:13;5.47;;;2.10;;
4577;SDS011;2301;47.354;8.528;2023-04-25T00:22:40;3.90;;;2.05;;
4577;SDS011;2301;47.354;8.528;2023-04-25T00:25:07;14.25;;;2.35;;
4577;SDS011;2301;47.354;8.528;2023-04-25T00:27:34;4.30;;;2.30;;
4577;SDS011;2301;47.354;8.528;2023-04-25T00:30:01;5.22;;;2.22;;
4577;SDS011;2301;47.354;8.528;2023-04-25T00:32:30;8.63;;;2.28;;
4577;SDS011;2301;47.354;8.528;2023-04-25T00:34:57;4.10;;;1.90;;
4577;SDS011;2301;47.354;8.528;2023-04-25T00:37:24;4.13;;;1.73;;
4577;SDS011;2301;47.354;8.528;2023-04-25T00:39:51;5.72;;;2.05;;
4577;SDS011;2301;47.354;8.528;2023-04-25T00:42:20;4.93;;;2.05;;
4577;SDS011;2301;47.354;8.528;2023-04-25T00:44:48;4.35;;;2.33;;
4577;SDS011;2301;47.354;8.528;2023-04-25T00:47:16;4.68;;;2.47;;
4577;SDS011;2301;47.354;8.528;2023-04-25T00:49:45;3.92;;;1.98;;
4577;SDS011;2301;47.354;8.528;2023-04-25T00:52:12;8.07;;;2.10;;
4577;SDS011;2301;47.354;8.528;2023-04-25T00:54:40;8.13;;;2.15;;
4577;SDS011;2301;47.354;8.528;2023-04-25T00:57:07;5.32;;;2.25;;
4577;SDS011;2301;47.354;8.528;2023-04-25T00:59:35;7.68;;;2.13;;
4577;SDS011;2301;47.354;8.528;2023-04-25T01:02:03;5.53;;;2.20;;
4577;SDS011;2301;47.354;8.528;2023-04-25T01:04:32;6.25;;;2.30;;
4577;SDS011;2301;47.354;8.528;2023-04-25T01:07:01;8.25;;;2.13;;
4577;SDS011;2301;47.354;8.528;2023-04-25T01:09:29;7.57;;;2.15;;
4577;SDS011;2301;47.354;8.528;2023-04-25T01:11:57;5.85;;;1.98;;
4577;SDS011;2301;47.354;8.528;2023-04-25T01:14:25;3.92;;;2.22;;
4577;SDS011;2301;47.354;8.528;2023-04-25T01:16:52;7.05;;;2.50;;
4577;SDS011;2301;47.354;8.528;2023-04-25T01:19:19;6.70;;;2.10;;
4577;SDS011;2301;47.354;8.528;2023-04-25T01:21:48;4.45;;;2.28;;
4577;SDS011;2301;47.354;8.528;2023-04-25T01:24:15;8.05;;;2.05;;
4577;SDS011;2301;47.354;8.528;2023-04-25T01:26:42;5.15;;;2.05;;
4577;SDS011;2301;47.354;8.528;2023-04-25T01:29:14;5.15;;;2.50;;
4577;SDS011;2301;47.354;8.528;2023-04-25T01:31:41;8.43;;;2.63;;
4577;SDS011;2301;47.354;8.528;2023-04-25T01:34:09;8.15;;;2.30;;
4577;SDS011;2301;47.354;8.528;2023-04-25T01:36:37;5.68;;;2.35;;
4577;SDS011;2301;47.354;8.528;2023-04-25T01:39:05;7.20;;;1.90;;
4577;SDS011;2301;47.354;8.528;2023-04-25T01:41:32;4.32;;;2.42;;
4577;SDS011;2301;47.354;8.528;2023-04-25T01:44:00;8.73;;;2.42;;
4577;SDS011;2301;47.354;8.528;2023-04-25T01:46:27;6.57;;;2.78;;
4577;SDS011;2301;47.354;8.528;2023-04-25T01:48:55;5.88;;;2.20;;
4577;SDS011;2301;47.354;8.528;2023-04-25T01:51:22;4.47;;;1.80;;
4577;SDS011;2301;47.354;8.528;2023-04-25T01:53:49;4.65;;;2.05;;
4577;SDS011;2301;47.354;8.528;2023-04-25T01:56:18;3.70;;;2.00;;
4577;SDS011;2301;47.354;8.528;2023-04-25T01:58:46;4.60;;;2.30;;
4577;SDS011;2301;47.354;8.528;2023-04-25T02:01:13;5.50;;;1.80;;
4577;SDS011;2301;47.354;8.528;2023-04-25T02:03:43;4.22;;;1.90;;
4577;SDS011;2301;47.354;8.528;2023-04-25T02:06:12;7.65;;;2.05;;
4577;SDS011;2301;47.354;8.528;2023-04-25T02:08:39;4.68;;;2.10;;
4577;SDS011;2301;47.354;8.528;2023-04-25T02:11:06;10.30;;;2.65;;
4577;SDS011;2301;47.354;8.528;2023-04-25T02:13:35;6.15;;;1.88;;
4577;SDS011;2301;47.354;8.528;2023-04-25T02:16:02;6.57;;;1.83;;
4577;SDS011;2301;47.354;8.528;2023-04-25T02:18:29;3.17;;;2.30;;
4577;SDS011;2301;47.354;8.528;2023-04-25T02:20:58;9.48;;;2.25;;
4577;SDS011;2301;47.354;8.528;2023-04-25T02:23:26;4.57;;;2.15;;
4577;SDS011;2301;47.354;8.528;2023-04-25T02:25:53;5.18;;;2.15;;
4577;SDS011;2301;47.354;8.528;2023-04-25T02:28:20;7.00;;;2.40;;
4577;SDS011;2301;47.354;8.528;2023-04-25T02:30:49;5.28;;;2.13;;
4577;SDS011;2301;47.354;8.528;2023-04-25T02:33:15;3.63;;;2.10;;
4577;SDS011;2301;47.354;8.528;2023-04-25T02:35:43;11.95;;;2.50;;
4577;SDS011;2301;47.354;8.528;2023-04-25T02:38:10;7.35;;;2.33;;
4577;SDS011;2301;47.354;8.528;2023-04-25T02:40:37;9.52;;;2.35;;
4577;SDS011;2301;47.354;8.528;2023-04-25T02:43:04;7.13;;;2.30;;
4577;SDS011;2301;47.354;8.528;2023-04-25T02:45:32;4.88;;;1.92;;
4577;SDS011;2301;47.354;8.528;2023-04-25T02:48:00;7.05;;;2.30;;
4577;SDS011;2301;47.354;8.528;2023-04-25T02:50:27;7.13;;;2.67;;
4577;SDS011;2301;47.354;8.528;2023-04-25T02:52:55;4.13;;;2.30;;
4577;SDS011;2301;47.354;8.528;2023-04-25T02:55:22;8.32;;;2.47;;
4577;SDS011;2301;47.354;8.528;2023-04-25T02:57:49;4.53;;;1.90;;
4577;SDS011;2301;47.354;8.528;2023-04-25T03:00:16;7.32;;;2.30;;
4577;SDS011;2301;47.354;8.528;2023-04-25T03:02:43;6.82;;;2.28;;
4577;SDS011;2301;47.354;8.528;2023-04-25T03:05:12;4.38;;;2.35;;
4577;SDS011;2301;47.354;8.528;2023-04-25T03:07:39;5.15;;;1.90;;
4577;SDS011;2301;47.354;8.528;2023-04-25T03:10:06;7.53;;;2.65;;
4577;SDS011;2301;47.354;8.528;2023-04-25T03:12:34;5.35;;;2.38;;
4577;SDS011;2301;47.354;8.528;2023-04-25T03:15:01;6.40;;;2.30;;
4577;SDS011;2301;47.354;8.528;2023-04-25T03:17:28;13.95;;;2.70;;
4577;SDS011;2301;47.354;8.528;2023-04-25T03:19:56;7.05;;;2.30;;
4577;SDS011;2301;47.354;8.528;2023-04-25T03:22:25;4.57;;;2.25;;
4577;SDS011;2301;47.354;8.528;2023-04-25T03:24:52;3.63;;;2.22;;
4577;SDS011;2301;47.354;8.528;2023-04-25T03:27:20;3.00;;;1.80;;
4577;SDS011;2301;47.354;8.528;2023-04-25T03:29:52;10.20;;;2.55;;
4577;SDS011;2301;47.354;8.528;2023-04-25T03:32:21;7.45;;;2.45;;
4577;SDS011;2301;47.354;8.528;2023-04-25T03:34:48;6.15;;;2.70;;
4577;SDS011;2301;47.354;8.528;2023-04-25T03:37:15;5.75;;;2.00;;
4577;SDS011;2301;47.354;8.528;2023-04-25T03:39:43;2.97;;;1.80;;
4577;SDS011;2301;47.354;8.528;2023-04-25T03:42:10;8.77;;;2.40;;
4577;SDS011;2301;47.354;8.528;2023-04-25T03:44:37;6.28;;;2.10;;
4577;SDS011;2301;47.354;8.528;2023-04-25T03:47:05;7.40;;;2.45;;
4577;SDS011;2301;47.354;8.528;2023-04-25T03:49:32;7.22;;;2.47;;
4577;SDS011;2301;47.354;8.528;2023-04-25T03:52:00;9.30;;;2.20;;
4577;SDS011;2301;47.354;8.528;2023-04-25T03:54:27;5.63;;;2.10;;
4577;SDS011;2301;47.354;8.528;2023-04-25T03:56:56;5.57;;;2.35;;
4577;SDS011;2301;47.354;8.528;2023-04-25T03:59:23;6.90;;;2.20;;
4577;SDS011;2301;47.354;8.528;2023-04-25T04:01:51;6.70;;;2.45;;
4577;SDS011;2301;47.354;8.528;2023-04-25T04:04:18;4.35;;;2.20;;
4577;SDS011;2301;47.354;8.528;2023-04-25T04:06:45;5.18;;;1.98;;
4577;SDS011;2301;47.354;8.528;2023-04-25T04:09:12;8.40;;;2.40;;
4577;SDS011;2301;47.354;8.528;2023-04-25T04:11:39;4.57;;;2.15;;
4577;SDS011;2301;47.354;8.528;2023-04-25T04:14:11;10.68;;;2.40;;
4577;SDS011;2301;47.354;8.528;2023-04-25T04:16:40;5.00;;;2.30;;
4577;SDS011;2301;47.354;8.528;2023-04-25T04:19:08;8.07;;;2.85;;
4577;SDS011;2301;47.354;8.528;2023-04-25T04:21:35;6.80;;;2.78;;
4577;SDS011;2301;47.354;8.528;2023-04-25T04:24:02;7.20;;;2.70;;
4577;SDS011;2301;47.354;8.528;2023-04-25T04:26:29;4.25;;;2.65;;
4577;SDS011;2301;47.354;8.528;2023-04-25T04:28:57;6.03;;;2.42;;
4577;SDS011;2301;47.354;8.528;2023-04-25T04:31:26;10.57;;;2.60;;
4577;SDS011;2301;47.354;8.528;2023-04-25T04:33:55;6.88;;;2.05;;
4577;SDS011;2301;47.354;8.528;2023-04-25T04:36:21;4.78;;;2.20;;
4577;SDS011;2301;47.354;8.528;2023-04-25T04:38:51;12.30;;;3.20;;
4577;SDS011;2301;47.354;8.528;2023-04-25T04:41:19;4.60;;;2.15;;
4577;SDS011;2301;47.354;8.528;2023-04-25T04:43:45;5.63;;;2.33;;
4577;SDS011;2301;47.354;8.528;2023-04-25T04:46:12;9.32;;;2.25;;
4577;SDS011;2301;47.354;8.528;2023-04-25T04:48:41;6.05;;;2.20;;
4577;SDS011;2301;47.354;8.528;2023-04-25T04:51:09;8.60;;;2.42;;
4577;SDS011;2301;47.354;8.528;2023-04-25T04:53:36;6.28;;;2.60;;
4577;SDS011;2301;47.354;8.528;2023-04-25T04:56:03;5.25;;;2.65;;
4577;SDS011;2301;47.354;8.528;2023-04-25T04:58:30;6.18;;;2.40;;
4577;SDS011;2301;47.354;8.528;2023-04-25T05:00:58;8.23;;;2.40;;
4577;SDS011;2301;47.354;8.528;2023-04-25T05:03:25;4.68;;;2.63;;
4577;SDS011;2301;47.354;8.528;2023-04-25T05:05:53;7.78;;;2.88;;
4577;SDS011;2301;47.354;8.528;2023-04-25T05:08:20;4.40;;;2.72;;
4577;SDS011;2301;47.354;8.528;2023-04-25T05:10:47;7.25;;;2.85;;
4577;SDS011;2301;47.354;8.528;2023-04-25T05:13:14;8.30;;;2.40;;
4577;SDS011;2301;47.354;8.528;2023-04-25T05:15:41;5.40;;;2.35;;
4577;SDS011;2301;47.354;8.528;2023-04-25T05:18:08;6.53;;;2.63;;
4577;SDS011;2301;47.354;8.528;2023-04-25T05:20:35;10.18;;;2.75;;
4577;SDS011;2301;47.354;8.528;2023-04-25T05:23:07;11.45;;;2.45;;
4577;SDS011;2301;47.354;8.528;2023-04-25T05:25:37;3.55;;;1.83;;
4577;SDS011;2301;47.354;8.528;2023-04-25T05:28:04;7.88;;;2.33;;
4577;SDS011;2301;47.354;8.528;2023-04-25T05:30:31;6.53;;;2.25;;
4577;SDS011;2301;47.354;8.528;2023-04-25T05:32:59;8.65;;;2.63;;
4577;SDS011;2301;47.354;8.528;2023-04-25T05:35:27;6.90;;;2.03;;
4577;SDS011;2301;47.354;8.528;2023-04-25T05:37:54;5.88;;;2.10;;
4577;SDS011;2301;47.354;8.528;2023-04-25T05:40:22;6.03;;;2.78;;
4577;SDS011;2301;47.354;8.528;2023-04-25T05:42:49;13.00;;;1.90;;
4577;SDS011;2301;47.354;8.528;2023-04-25T05:45:16;5.70;;;1.95;;
4577;SDS011;2301;47.354;8.528;2023-04-25T05:47:43;10.32;;;2.00;;
4577;SDS011;2301;47.354;8.528;2023-04-25T05:50:10;5.10;;;2.00;;
4577;SDS011;2301;47.354;8.528;2023-04-25T05:52:37;5.90;;;1.98;;
4577;SDS011;2301;47.354;8.528;2023-04-25T05:55:05;4.30;;;1.80;;
4577;SDS011;2301;47.354;8.528;2023-04-25T05:57:34;5.22;;;1.73;;
4577;SDS011;2301;47.354;8.528;2023-04-25T06:00:01;5.57;;;2.38;;
4577;SDS011;2301;47.354;8.528;2023-04-25T06:02:29;4.43;;;1.75;;
4577;SDS011;2301;47.354;8.528;2023-04-25T06:04:56;6.00;;;1.77;;
4577;SDS011;2301;47.354;8.528;2023-04-25T06:07:23;3.88;;;1.90;;
4577;SDS011;2301;47.354;8.528;2023-04-25T06:09:49;4.20;;;1.85;;
4577;SDS011;2301;47.354;8.528;2023-04-25T06:12:17;3.00;;;1.60;;
4577;SDS011;2301;47.354;8.528;2023-04-25T06:14:46;5.90;;;2.17;;
4577;SDS011;2301;47.354;8.528;2023-04-25T06:17:13;6.40;;;1.63;;
4577;SDS011;2301;47.354;8.528;2023-04-25T06:19:40;4.00;;;1.50;;
4577;SDS011;2301;47.354;8.528;2023-04-25T06:22:07;7.80;;;2.40;;
4577;SDS011;2301;47.354;8.528;2023-04-25T06:24:34;3.28;;;1.48;;
4577;SDS011;2301;47.354;8.528;2023-04-25T06:27:01;3.95;;;1.70;;
4577;SDS011;2301;47.354;8.528;2023-04-25T06:29:28;5.30;;;1.98;;
4577;SDS011;2301;47.354;8.528;2023-04-25T06:31:57;5.85;;;2.30;;
4577;SDS011;2301;47.354;8.528;2023-04-25T06:34:24;7.35;;;2.28;;
4577;SDS011;2301;47.354;8.528;2023-04-25T06:36:50;2.50;;;1.52;;
4577;SDS011;2301;47.354;8.528;2023-04-25T06:39:18;10.25;;;2.10;;
4577;SDS011;2301;47.354;8.528;2023-04-25T06:41:49;8.60;;;1.90;;
4577;SDS011;2301;47.354;8.528;2023-04-25T06:44:19;6.43;;;2.30;;
4577;SDS011;2301;47.354;8.528;2023-04-25T06:46:48;3.20;;;1.40;;
4577;SDS011;2301;47.354;8.528;2023-04-25T06:49:17;4.95;;;2.00;;
4577;SDS011;2301;47.354;8.528;2023-04-25T06:51:44;2.92;;;1.80;;
4577;SDS011;2301;47.354;8.528;2023-04-25T06:54:10;4.40;;;1.70;;
4577;SDS011;2301;47.354;8.528;2023-04-25T06:56:37;4.40;;;1.40;;
4577;SDS011;2301;47.354;8.528;2023-04-25T06:59:04;3.35;;;1.70;;
4577;SDS011;2301;47.354;8.528;2023-04-25T07:01:31;2.35;;;1.40;;
4577;SDS011;2301;47.354;8.528;2023-04-25T07:03:58;2.72;;;1.30;;
4577;SDS011;2301;47.354;8.528;2023-04-25T07:06:27;4.97;;;1.75;;
4577;SDS011;2301;47.354;8.528;2023-04-25T07:08:54;3.38;;;1.55;;
4577;SDS011;2301;47.354;8.528;2023-04-25T07:11:21;4.70;;;1.85;;
4577;SDS011;2301;47.354;8.528;2023-04-25T07:13:48;2.60;;;1.70;;
4577;SDS011;2301;47.354;8.528;2023-04-25T07:16:15;4.07;;;1.55;;
4577;SDS011;2301;47.354;8.528;2023-04-25T07:18:42;4.45;;;1.92;;
4577;SDS011;2301;47.354;8.528;2023-04-25T07:21:09;2.30;;;1.35;;
4577;SDS011;2301;47.354;8.528;2023-04-25T07:23:38;5.75;;;1.67;;
4577;SDS011;2301;47.354;8.528;2023-04-25T07:26:05;3.50;;;1.67;;
4577;SDS011;2301;47.354;8.528;2023-04-25T07:28:33;2.05;;;1.40;;
4577;SDS011;2301;47.354;8.528;2023-04-25T07:31:00;3.05;;;1.45;;
4577;SDS011;2301;47.354;8.528;2023-04-25T07:33:27;2.90;;;1.38;;
4577;SDS011;2301;47.354;8.528;2023-04-25T07:35:54;2.75;;;1.30;;
4577;SDS011;2301;47.354;8.528;2023-04-25T07:38:21;4.47;;;1.60;;
4577;SDS011;2301;47.354;8.528;2023-04-25T07:40:50;6.03;;;1.50;;
4577;SDS011;2301;47.354;8.528;2023-04-25T07:43:19;3.13;;;1.50;;
4577;SDS011;2301;47.354;8.528;2023-04-25T07:45:46;4.03;;;1.80;;
4577;SDS011;2301;47.354;8.528;2023-04-25T07:48:16;2.70;;;1.40;;
4577;SDS011;2301;47.354;8.528;2023-04-25T07:50:44;4.00;;;1.60;;
4577;SDS011;2301;47.354;8.528;2023-04-25T07:53:12;4.93;;;1.60;;
4577;SDS011;2301;47.354;8.528;2023-04-25T07:55:39;2.25;;;1.50;;
4577;SDS011;2301;47.354;8.528;2023-04-25T07:58:08;3.90;;;1.60;;
4577;SDS011;2301;47.354;8.528;2023-04-25T08:00:35;2.13;;;1.38;;
4577;SDS011;2301;47.354;8.528;2023-04-25T08:03:02;2.85;;;1.50;;
4577;SDS011;2301;47.354;8.528;2023-04-25T08:05:29;3.15;;;1.50;;
4577;SDS011;2301;47.354;8.528;2023-04-25T08:07:56;5.47;;;1.90;;
4577;SDS011;2301;47.354;8.528;2023-04-25T08:10:24;3.50;;;1.52;;
4577;SDS011;2301;47.354;8.528;2023-04-25T08:12:51;2.70;;;1.52;;
4577;SDS011;2301;47.354;8.528;2023-04-25T08:15:19;4.70;;;1.30;;
4577;SDS011;2301;47.354;8.528;2023-04-25T08:17:46;3.20;;;1.27;;
4577;SDS011;2301;47.354;8.528;2023-04-25T08:20:14;4.50;;;1.50;;
4577;SDS011;2301;47.354;8.528;2023-04-25T08:22:40;2.95;;;1.40;;
4577;SDS011;2301;47.354;8.528;2023-04-25T08:25:07;2.67;;;1.45;;
4577;SDS011;2301;47.354;8.528;2023-04-25T08:27:34;2.63;;;1.48;;
4577;SDS011;2301;47.354;8.528;2023-04-25T08:30:01;3.40;;;1.30;;
4577;SDS011;2301;47.354;8.528;2023-04-25T08:32:31;1.95;;;1.40;;
4577;SDS011;2301;47.354;8.528;2023-04-25T08:34:59;3.28;;;1.75;;
4577;SDS011;2301;47.354;8.528;2023-04-25T08:37:25;2.28;;;1.58;;
4577;SDS011;2301;47.354;8.528;2023-04-25T08:39:52;2.70;;;1.30;;
4577;SDS011;2301;47.354;8.528;2023-04-25T08:42:21;2.60;;;1.42;;
4577;SDS011;2301;47.354;8.528;2023-04-25T08:44:48;3.17;;;1.45;;
4577;SDS011;2301;47.354;8.528;2023-04-25T08:47:15;2.33;;;1.40;;
4577;SDS011;2301;47.354;8.528;2023-04-25T08:49:48;3.20;;;1.45;;
4577;SDS011;2301;47.354;8.528;2023-04-25T08:52:16;3.35;;;1.58;;
4577;SDS011;2301;47.354;8.528;2023-04-25T08:54:48;7.15;;;1.70;;
4577;SDS011;2301;47.354;8.528;2023-04-25T08:57:17;3.70;;;1.45;;
4577;SDS011;2301;47.354;8.528;2023-04-25T08:59:47;3.10;;;1.50;;
4577;SDS011;2301;47.354;8.528;2023-04-25T09:02:19;2.17;;;1.35;;
4577;SDS011;2301;47.354;8.528;2023-04-25T09:04:51;2.35;;;1.50;;
4577;SDS011;2301;47.354;8.528;2023-04-25T09:07:23;2.28;;;1.42;;
4577;SDS011;2301;47.354;8.528;2023-04-25T09:09:52;2.50;;;1.40;;
4577;SDS011;2301;47.354;8.528;2023-04-25T09:12:25;2.42;;;1.33;;
4577;SDS011;2301;47.354;8.528;2023-04-25T09:15:04;1.80;;;1.38;;
4577;SDS011;2301;47.354;8.528;2023-04-25T09:17:35;5.68;;;1.85;;
4577;SDS011;2301;47.354;8.528;2023-04-25T09:20:07;2.22;;;1.42;;
4577;SDS011;2301;47.354;8.528;2023-04-25T09:22:36;5.30;;;1.88;;
4577;SDS011;2301;47.354;8.528;2023-04-25T09:25:03;11.38;;;1.65;;
4577;SDS011;2301;47.354;8.528;2023-04-25T09:27:34;2.92;;;1.80;;
4577;SDS011;2301;47.354;8.528;2023-04-25T09:30:02;2.38;;;1.40;;
4577;SDS011;2301;47.354;8.528;2023-04-25T09:32:29;1.80;;;1.33;;
4577;SDS011;2301;47.354;8.528;2023-04-25T09:34:57;3.42;;;1.40;;
4577;SDS011;2301;47.354;8.528;2023-04-25T09:37:25;1.80;;;1.25;;
4577;SDS011;2301;47.354;8.528;2023-04-25T09:39:54;2.22;;;1.33;;
4577;SDS011;2301;47.354;8.528;2023-04-25T09:42:24;3.45;;;1.40;;
4577;SDS011;2301;47.354;8.528;2023-04-25T09:44:52;2.35;;;1.20;;
4577;SDS011;2301;47.354;8.528;2023-04-25T09:47:22;2.38;;;1.23;;
4577;SDS011;2301;47.354;8.528;2023-04-25T09:49:50;2.03;;;1.30;;
4577;SDS011;2301;47.354;8.528;2023-04-25T09:52:18;1.40;;;0.93;;
4577;SDS011;2301;47.354;8.528;2023-04-25T09:54:48;3.15;;;1.40;;
4577;SDS011;2301;47.354;8.528;2023-04-25T09:57:16;1.58;;;1.23;;
4577;SDS011;2301;47.354;8.528;2023-04-25T09:59:44;2.10;;;1.30;;
4577;SDS011;2301;47.354;8.528;2023-04-25T10:02:12;2.60;;;1.30;;
4577;SDS011;2301;47.354;8.528;2023-04-25T10:04:41;1.75;;;1.10;;
4577;SDS011;2301;47.354;8.528;2023-04-25T10:07:08;1.58;;;1.10;;
4577;SDS011;2301;47.354;8.528;2023-04-25T10:09:36;1.80;;;1.10;;
4577;SDS011;2301;47.354;8.528;2023-04-25T10:12:07;2.08;;;1.20;;
4577;SDS011;2301;47.354;8.528;2023-04-25T10:14:35;1.92;;;1.30;;
4577;SDS011;2301;47.354;8.528;2023-04-25T10:17:02;1.42;;;1.10;;
4577;SDS011;2301;47.354;8.528;2023-04-25T10:19:29;2.15;;;1.20;;
4577;SDS011;2301;47.354;8.528;2023-04-25T10:21:58;2.80;;;1.30;;
4577;SDS011;2301;47.354;8.528;2023-04-25T10:24:33;1.42;;;1.02;;
4577;SDS011;2301;47.354;8.528;2023-04-25T10:27:02;5.55;;;1.40;;
4577;SDS011;2301;47.354;8.528;2023-04-25T10:29:30;4.33;;;1.47;;
4577;SDS011;2301;47.354;8.528;2023-04-25T10:31:57;2.80;;;1.40;;
4577;SDS011;2301;47.354;8.528;2023-04-25T10:34:25;1.40;;;1.20;;
4577;SDS011;2301;47.354;8.528;2023-04-25T10:37:04;2.80;;;0.90;;
4577;SDS011;2301;47.354;8.528;2023-04-25T10:39:34;3.25;;;1.00;;
4577;SDS011;2301;47.354;8.528;2023-04-25T10:42:02;2.58;;;1.10;;
4577;SDS011;2301;47.354;8.528;2023-04-25T10:44:31;1.77;;;1.15;;
4577;SDS011;2301;47.354;8.528;2023-04-25T10:46:58;2.37;;;1.13;;
4577;SDS011;2301;47.354;8.528;2023-04-25T10:49:28;2.22;;;1.20;;
4577;SDS011;2301;47.354;8.528;2023-04-25T10:52:13;1.33;;;0.98;;
4577;SDS011;2301;47.354;8.528;2023-04-25T10:54:41;1.90;;;1.33;;
4577;SDS011;2301;47.354;8.528;2023-04-25T11:00:00;2.78;;;1.20;;
4577;SDS011;2301;47.354;8.528;2023-04-25T11:02:30;2.00;;;1.30;;
4577;SDS011;2301;47.354;8.528;2023-04-25T11:04:57;2.40;;;1.30;;
4577;SDS011;2301;47.354;8.528;2023-04-25T11:07:26;1.60;;;1.07;;
4577;SDS011;2301;47.354;8.528;2023-04-25T11:10:00;1.83;;;1.30;;
4577;SDS011;2301;47.354;8.528;2023-04-25T11:12:29;2.50;;;1.17;;
4577;SDS011;2301;47.354;8.528;2023-04-25T11:15:02;3.67;;;1.20;;
4577;SDS011;2301;47.354;8.528;2023-04-25T11:17:34;1.67;;;1.10;;
4577;SDS011;2301;47.354;8.528;2023-04-25T11:20:01;1.40;;;1.10;;
4577;SDS011;2301;47.354;8.528;2023-04-25T11:22:32;1.80;;;1.10;;
4577;SDS011;2301;47.354;8.528;2023-04-25T11:25:04;2.60;;;1.10;;
4577;SDS011;2301;47.354;8.528;2023-04-25T11:27:31;1.50;;;1.20;;
4577;SDS011;2301;47.354;8.528;2023-04-25T11:30:10;1.97;;;1.00;;
4577;SDS011;2301;47.354;8.528;2023-04-25T11:32:39;1.77;;;1.10;;
4577;SDS011;2301;47.354;8.528;2023-04-25T11:35:07;1.90;;;1.20;;
4577;SDS011;2301;47.354;8.528;2023-04-25T11:37:34;1.67;;;1.10;;
4577;SDS011;2301;47.354;8.528;2023-04-25T11:40:02;1.50;;;1.17;;
4577;SDS011;2301;47.354;8.528;2023-04-25T11:42:30;1.70;;;1.20;;
4577;SDS011;2301;47.354;8.528;2023-04-25T11:44:57;6.73;;;1.07;;
4577;SDS011;2301;47.354;8.528;2023-04-25T11:47:29;1.50;;;1.20;;
4577;SDS011;2301;47.354;8.528;2023-04-25T11:49:57;1.70;;;1.23;;
4577;SDS011;2301;47.354;8.528;2023-04-25T11:52:34;1.83;;;1.23;;
4577;SDS011;2301;47.354;8.528;2023-04-25T11:55:03;7.03;;;1.37;;
4577;SDS011;2301;47.354;8.528;2023-04-25T11:57:32;1.30;;;0.97;;
4577;SDS011;2301;47.354;8.528;2023-04-25T12:00:06;2.07;;;1.10;;
4577;SDS011;2301;47.354;8.528;2023-04-25T12:02:43;2.73;;;1.10;;
4577;SDS011;2301;47.354;8.528;2023-04-25T12:05:12;1.60;;;1.10;;
4577;SDS011;2301;47.354;8.528;2023-04-25T12:07:41;2.23;;;1.40;;
4577;SDS011;2301;47.354;8.528;2023-04-25T12:10:09;6.03;;;1.30;;
4577;SDS011;2301;47.354;8.528;2023-04-25T12:12:38;2.27;;;1.10;;
4577;SDS011;2301;47.354;8.528;2023-04-25T12:15:09;1.60;;;1.20;;
4577;SDS011;2301;47.354;8.528;2023-04-25T12:17:37;3.00;;;1.10;;
4577;SDS011;2301;47.354;8.528;2023-04-25T12:20:12;2.40;;;1.17;;
4577;SDS011;2301;47.354;8.528;2023-04-25T12:22:40;3.80;;;1.30;;
4577;SDS011;2301;47.354;8.528;2023-04-25T12:25:09;2.33;;;1.50;;
4577;SDS011;2301;47.354;8.528;2023-04-25T12:27:37;2.63;;;1.30;;
4577;SDS011;2301;47.354;8.528;2023-04-25T12:30:05;2.00;;;1.20;;
4577;SDS011;2301;47.354;8.528;2023-04-25T12:32:34;3.70;;;1.40;;
4577;SDS011;2301;47.354;8.528;2023-04-25T12:35:04;1.73;;;1.10;;
4577;SDS011;2301;47.354;8.528;2023-04-25T12:37:36;3.47;;;1.03;;
4577;SDS011;2301;47.354;8.528;2023-04-25T12:40:04;2.80;;;1.37;;
4577;SDS011;2301;47.354;8.528;2023-04-25T12:42:32;5.63;;;1.90;;
4577;SDS011;2301;47.354;8.528;2023-04-25T12:44:59;27.57;;;3.63;;
4577;SDS011;2301;47.354;8.528;2023-04-25T12:47:26;12.40;;;2.60;;
4577;SDS011;2301;47.354;8.528;2023-04-25T12:49:53;11.60;;;2.33;;
4577;SDS011;2301;47.354;8.528;2023-04-25T12:52:21;6.57;;;2.03;;
4577;SDS011;2301;47.354;8.528;2023-04-25T12:54:49;1.60;;;1.20;;
4577;SDS011;2301;47.354;8.528;2023-04-25T12:57:16;1.80;;;1.30;;
4577;SDS011;2301;47.354;8.528;2023-04-25T12:59:43;2.60;;;1.60;;
4577;SDS011;2301;47.354;8.528;2023-04-25T13:02:10;3.00;;;1.40;;
4577;SDS011;2301;47.354;8.528;2023-04-25T13:04:37;3.03;;;1.20;;
4577;SDS011;2301;47.354;8.528;2023-04-25T13:07:04;2.10;;;1.30;;
4577;SDS011;2301;47.354;8.528;2023-04-25T13:09:32;2.87;;;1.40;;
4577;SDS011;2301;47.354;8.528;2023-04-25T13:12:00;2.87;;;1.50;;
4577;SDS011;2301;47.354;8.528;2023-04-25T13:14:27;2.00;;;1.30;;
4577;SDS011;2301;47.354;8.528;2023-04-25T13:16:54;2.33;;;1.30;;
4577;SDS011;2301;47.354;8.528;2023-04-25T13:19:20;2.50;;;1.53;;
4577;SDS011;2301;47.354;8.528;2023-04-25T13:21:47;3.33;;;1.60;;
4577;SDS011;2301;47.354;8.528;2023-04-25T13:24:15;2.37;;;1.37;;
4577;SDS011;2301;47.354;8.528;2023-04-25T13:26:41;1.67;;;1.10;;
4577;SDS011;2301;47.354;8.528;2023-04-25T13:29:10;2.20;;;1.13;;
4577;SDS011;2301;47.354;8.528;2023-04-25T13:31:37;2.30;;;1.07;;
4577;SDS011;2301;47.354;8.528;2023-04-25T13:34:04;8.80;;;1.30;;
4577;SDS011;2301;47.354;8.528;2023-04-25T13:36:31;2.30;;;1.30;;
4577;SDS011;2301;47.354;8.528;2023-04-25T13:38:58;1.53;;;1.10;;
4577;SDS011;2301;47.354;8.528;2023-04-25T13:41:25;2.53;;;1.43;;
4577;SDS011;2301;47.354;8.528;2023-04-25T13:43:52;3.10;;;1.30;;
4577;SDS011;2301;47.354;8.528;2023-04-25T13:46:20;3.30;;;1.40;;
4577;SDS011;2301;47.354;8.528;2023-04-25T13:48:47;2.63;;;1.40;;
4577;SDS011;2301;47.354;8.528;2023-04-25T13:51:15;2.67;;;1.47;;
4577;SDS011;2301;47.354;8.528;2023-04-25T13:53:46;3.17;;;1.43;;
4577;SDS011;2301;47.354;8.528;2023-04-25T13:56:15;8.57;;;1.30;;
4577;SDS011;2301;47.354;8.528;2023-04-25T13:58:44;2.40;;;1.40;;
4577;SDS011;2301;47.354;8.528;2023-04-25T14:01:11;2.80;;;1.40;;
4577;SDS011;2301;47.354;8.528;2023-04-25T14:03:40;1.80;;;1.20;;
4577;SDS011;2301;47.354;8.528;2023-04-25T14:06:07;1.60;;;1.20;;
4577;SDS011;2301;47.354;8.528;2023-04-25T14:08:34;1.70;;;1.17;;
4577;SDS011;2301;47.354;8.528;2023-04-25T14:11:02;5.77;;;1.50;;
4577;SDS011;2301;47.354;8.528;2023-04-25T14:13:29;1.80;;;1.43;;
4577;SDS011;2301;47.354;8.528;2023-04-25T14:15:57;2.10;;;1.10;;
4577;SDS011;2301;47.354;8.528;2023-04-25T14:18:24;2.10;;;1.50;;
4577;SDS011;2301;47.354;8.528;2023-04-25T14:20:52;4.03;;;1.80;;
4577;SDS011;2301;47.354;8.528;2023-04-25T14:23:19;3.17;;;1.70;;
4577;SDS011;2301;47.354;8.528;2023-04-25T14:25:46;4.20;;;1.57;;
4577;SDS011;2301;47.354;8.528;2023-04-25T14:28:13;2.27;;;1.37;;
4577;SDS011;2301;47.354;8.528;2023-04-25T14:30:41;2.17;;;1.50;;
4577;SDS011;2301;47.354;8.528;2023-04-25T14:33:07;2.73;;;1.60;;
4577;SDS011;2301;47.354;8.528;2023-04-25T14:35:34;5.27;;;1.50;;
4577;SDS011;2301;47.354;8.528;2023-04-25T14:38:03;2.87;;;1.77;;
4577;SDS011;2301;47.354;8.528;2023-04-25T14:40:30;2.90;;;1.57;;
4577;SDS011;2301;47.354;8.528;2023-04-25T14:42:57;3.40;;;1.50;;
4577;SDS011;2301;47.354;8.528;2023-04-25T14:45:24;4.13;;;1.90;;
4577;SDS011;2301;47.354;8.528;2023-04-25T14:47:51;3.30;;;1.73;;
4577;SDS011;2301;47.354;8.528;2023-04-25T14:50:19;2.60;;;1.50;;
4577;SDS011;2301;47.354;8.528;2023-04-25T14:52:46;2.40;;;1.70;;
4577;SDS011;2301;47.354;8.528;2023-04-25T14:55:14;2.30;;;1.50;;
4577;SDS011;2301;47.354;8.528;2023-04-25T14:57:41;2.57;;;1.73;;
4577;SDS011;2301;47.354;8.528;2023-04-25T15:00:08;3.93;;;1.60;;
4577;SDS011;2301;47.354;8.528;2023-04-25T15:02:38;3.10;;;1.50;;
4577;SDS011;2301;47.354;8.528;2023-04-25T15:05:05;4.50;;;1.83;;
4577;SDS011;2301;47.354;8.528;2023-04-25T15:07:33;1.40;;;1.20;;
4577;SDS011;2301;47.354;8.528;2023-04-25T15:10:00;2.40;;;1.27;;
4577;SDS011;2301;47.354;8.528;2023-04-25T15:12:29;3.10;;;1.80;;
4577;SDS011;2301;47.354;8.528;2023-04-25T15:14:56;2.90;;;1.40;;
4577;SDS011;2301;47.354;8.528;2023-04-25T15:17:23;2.80;;;1.30;;
4577;SDS011;2301;47.354;8.528;2023-04-25T15:19:51;2.87;;;1.30;;
4577;SDS011;2301;47.354;8.528;2023-04-25T15:22:19;1.90;;;1.10;;